createdAt,value
2022-08-31T00:02:00.392Z,1.20
2022-08-31T00:05:07.522Z,0.93
2022-08-31T00:08:13.544Z,1.17
2022-08-31T00:11:28.016Z,1.63
2022-08-31T00:14:33.859Z,1.10
2022-08-31T00:17:41.310Z,1.20
2022-08-31T00:20:48.672Z,1.30
2022-08-31T00:23:55.204Z,1.07
2022-08-31T00:27:07.973Z,1.10
2022-08-31T00:30:15.007Z,1.30
2022-08-31T00:33:21.496Z,1.23
2022-08-31T00:36:28.980Z,1.00
2022-08-31T00:39:34.820Z,1.10
2022-08-31T00:42:42.826Z,1.10
2022-08-31T00:45:48.486Z,1.00
2022-08-31T00:48:53.984Z,1.00
2022-08-31T00:52:11.750Z,1.10
2022-08-31T00:55:18.397Z,1.00
2022-08-31T00:58:30.531Z,1.00
2022-08-31T01:01:37.121Z,0.90
2022-08-31T01:04:44.413Z,1.10
2022-08-31T01:07:50.471Z,1.10
2022-08-31T01:10:56.276Z,1.37
2022-08-31T01:14:02.942Z,1.50
2022-08-31T01:17:08.971Z,1.00
2022-08-31T01:20:16.844Z,1.10
2022-08-31T01:23:23.053Z,1.00
2022-08-31T01:26:29.431Z,1.30
2022-08-31T01:29:35.870Z,1.30
2022-08-31T01:32:41.482Z,1.43
2022-08-31T01:35:47.767Z,1.60
2022-08-31T01:38:54.413Z,1.33
2022-08-31T01:42:00.769Z,1.40
2022-08-31T01:45:07.756Z,1.57
2022-08-31T01:48:13.561Z,1.17
2022-08-31T01:51:19.330Z,1.07
2022-08-31T01:54:27.955Z,1.30
2022-08-31T01:57:34.794Z,1.40
2022-08-31T02:00:41.182Z,2.07
2022-08-31T02:03:47.616Z,1.57
2022-08-31T02:06:54.133Z,1.67
2022-08-31T02:10:00.518Z,1.30
2022-08-31T02:13:19.880Z,1.20
2022-08-31T02:16:25.828Z,1.30
2022-08-31T02:19:31.963Z,1.63
2022-08-31T02:22:37.772Z,1.50
2022-08-31T02:25:49.966Z,1.50
2022-08-31T02:28:55.971Z,1.50
2022-08-31T02:32:01.802Z,1.97
2022-08-31T02:35:07.591Z,1.40
2022-08-31T02:38:22.663Z,1.33
2022-08-31T02:41:29.494Z,1.40
2022-08-31T02:44:35.465Z,1.50
2022-08-31T02:47:41.386Z,1.13
2022-08-31T02:50:47.260Z,1.47
2022-08-31T02:53:53.242Z,1.43
2022-08-31T02:56:59.678Z,1.50
2022-08-31T03:00:08.485Z,1.33
2022-08-31T03:03:14.303Z,1.37
2022-08-31T03:06:20.357Z,1.70
2022-08-31T03:09:37.748Z,1.57
2022-08-31T03:12:46.185Z,1.60
2022-08-31T03:15:53.669Z,1.47
2022-08-31T03:19:04.256Z,1.47
2022-08-31T03:22:10.621Z,1.50
2022-08-31T03:25:17.864Z,1.70
2022-08-31T03:28:23.443Z,1.50
2022-08-31T03:31:29.156Z,1.47
2022-08-31T03:34:35.707Z,1.30
2022-08-31T03:37:41.609Z,1.60
2022-08-31T03:40:48.086Z,1.30
2022-08-31T03:43:54.443Z,1.33
2022-08-31T03:47:00.637Z,1.60
2022-08-31T03:50:11.217Z,1.90
2022-08-31T03:53:21.808Z,1.90
2022-08-31T03:56:40.770Z,1.70
2022-08-31T03:59:47.270Z,1.37
2022-08-31T04:02:53.392Z,1.60
2022-08-31T04:05:59.754Z,1.70
2022-08-31T04:09:05.630Z,1.50
2022-08-31T04:12:11.970Z,1.40
2022-08-31T04:15:20.493Z,1.77
2022-08-31T04:18:26.240Z,1.67
2022-08-31T04:21:32.125Z,1.47
2022-08-31T04:24:38.862Z,1.53
2022-08-31T04:27:45.619Z,1.57
2022-08-31T04:30:52.361Z,1.30
2022-08-31T04:33:58.495Z,1.33
2022-08-31T04:37:04.496Z,1.23
2022-08-31T04:40:22.623Z,1.63
2022-08-31T04:43:31.495Z,1.30
2022-08-31T04:46:38.197Z,1.47
2022-08-31T04:49:44.119Z,1.40
2022-08-31T04:53:03.382Z,1.70
2022-08-31T04:56:14.822Z,1.37
2022-08-31T04:59:26.363Z,1.30
2022-08-31T05:02:33.061Z,1.73
2022-08-31T05:05:53.853Z,1.67
2022-08-31T05:08:59.981Z,1.03
2022-08-31T05:12:05.827Z,1.77
2022-08-31T05:15:11.547Z,1.40
2022-08-31T05:18:18.355Z,1.40
2022-08-31T05:21:28.300Z,1.40
2022-08-31T05:24:37.387Z,1.30
2022-08-31T05:27:43.980Z,1.27
2022-08-31T05:30:50.646Z,1.33
2022-08-31T05:33:58.700Z,1.40
2022-08-31T05:37:11.024Z,1.30
2022-08-31T05:40:17.514Z,1.10
2022-08-31T05:43:24.262Z,1.17
2022-08-31T05:46:34.030Z,1.53
2022-08-31T05:49:41.345Z,1.13
2022-08-31T05:52:47.546Z,1.20
2022-08-31T05:55:53.061Z,1.20
2022-08-31T05:58:58.736Z,1.57
2022-08-31T06:02:05.746Z,1.30
2022-08-31T06:05:12.074Z,1.20
2022-08-31T06:08:27.040Z,1.17
2022-08-31T06:11:35.072Z,1.40
2022-08-31T06:14:47.059Z,1.30
2022-08-31T06:17:54.534Z,1.47
2022-08-31T06:21:00.840Z,1.10
2022-08-31T06:24:07.070Z,1.10
2022-08-31T06:27:13.000Z,1.37
2022-08-31T06:30:27.464Z,1.07
2022-08-31T06:33:33.985Z,1.40
2022-08-31T06:36:40.890Z,1.00
2022-08-31T06:39:49.390Z,1.20
2022-08-31T06:42:55.695Z,1.10
2022-08-31T06:46:02.882Z,1.10
2022-08-31T06:49:10.114Z,1.30
2022-08-31T06:52:16.290Z,0.97
2022-08-31T06:55:22.158Z,0.90
2022-08-31T06:58:28.344Z,1.30
2022-08-31T07:01:36.293Z,1.07
2022-08-31T07:04:43.205Z,1.17
2022-08-31T07:07:49.564Z,1.23
2022-08-31T07:10:58.530Z,1.20
2022-08-31T07:14:08.145Z,1.20
2022-08-31T07:17:14.110Z,1.07
2022-08-31T07:20:20.448Z,1.10
2022-08-31T07:23:27.491Z,0.90
2022-08-31T07:26:36.535Z,1.10
2022-08-31T07:29:43.348Z,1.00
2022-08-31T07:32:50.789Z,0.90
2022-08-31T07:36:08.477Z,1.33
2022-08-31T07:39:36.009Z,0.87
2022-08-31T07:42:43.538Z,0.87
2022-08-31T07:45:52.946Z,0.90
2022-08-31T07:49:00.682Z,0.90
2022-08-31T07:52:07.052Z,0.93
2022-08-31T07:55:13.229Z,0.93
2022-08-31T07:58:35.157Z,0.77
2022-08-31T08:01:44.719Z,0.93
2022-08-31T08:04:54.109Z,0.97
2022-08-31T08:08:00.615Z,0.90
2022-08-31T08:11:08.181Z,0.80
2022-08-31T08:14:24.632Z,0.90
2022-08-31T08:17:34.948Z,0.70
2022-08-31T08:20:41.581Z,0.87
2022-08-31T08:23:47.567Z,0.80
2022-08-31T08:26:54.708Z,0.70
2022-08-31T08:30:04.376Z,0.70
2022-08-31T08:33:10.852Z,0.90
2022-08-31T08:36:21.983Z,0.60
2022-08-31T08:39:31.663Z,0.70
2022-08-31T08:42:45.904Z,0.60
2022-08-31T08:45:54.064Z,0.93
2022-08-31T08:49:00.811Z,0.67
2022-08-31T08:52:11.639Z,0.70
2022-08-31T08:55:17.856Z,0.70
2022-08-31T08:58:29.836Z,0.93
2022-08-31T09:01:37.638Z,0.70
2022-08-31T09:04:44.086Z,0.63
2022-08-31T09:07:50.642Z,0.80
2022-08-31T09:10:56.464Z,0.70
2022-08-31T09:14:27.539Z,0.63
2022-08-31T09:17:33.305Z,0.90
2022-08-31T09:20:41.430Z,0.80
2022-08-31T09:23:54.513Z,0.67
2022-08-31T09:27:03.808Z,0.70
2022-08-31T09:30:10.204Z,0.60
2022-08-31T09:33:15.526Z,0.90
2022-08-31T09:36:22.621Z,0.80
2022-08-31T09:39:27.971Z,0.70
2022-08-31T09:42:38.546Z,0.70
2022-08-31T09:45:46.715Z,0.60
2022-08-31T09:49:00.943Z,0.77
2022-08-31T09:52:07.437Z,0.70
2022-08-31T09:55:17.698Z,0.60
2022-08-31T09:58:28.240Z,0.70
2022-08-31T10:01:41.162Z,0.63
2022-08-31T10:04:48.102Z,0.97
2022-08-31T10:07:57.662Z,0.83
2022-08-31T10:11:03.687Z,0.77
2022-08-31T10:14:09.922Z,0.50
2022-08-31T10:17:16.702Z,0.70
2022-08-31T10:20:25.303Z,0.90
2022-08-31T10:23:35.917Z,0.80
2022-08-31T10:26:43.063Z,0.83
2022-08-31T10:29:49.914Z,0.70
2022-08-31T10:32:58.329Z,0.77
2022-08-31T10:36:04.802Z,0.60
2022-08-31T10:39:10.706Z,0.60
2022-08-31T10:42:17.034Z,0.50
2022-08-31T10:45:24.390Z,0.60
2022-08-31T10:48:30.734Z,1.00
2022-08-31T10:51:40.476Z,0.60
2022-08-31T10:54:46.744Z,0.80
2022-08-31T10:57:55.346Z,0.73
2022-08-31T11:01:01.486Z,0.83
2022-08-31T11:04:11.035Z,1.13
2022-08-31T11:07:17.292Z,0.60
2022-08-31T11:10:23.236Z,0.80
2022-08-31T11:13:31.383Z,0.70
2022-08-31T11:16:37.350Z,0.80
2022-08-31T11:19:50.380Z,0.60
2022-08-31T11:22:56.749Z,0.70
2022-08-31T11:26:12.337Z,0.60
2022-08-31T11:29:18.963Z,0.70
2022-08-31T11:32:24.366Z,0.70
2022-08-31T11:35:43.309Z,0.60
2022-08-31T11:38:54.870Z,0.70
2022-08-31T11:42:00.860Z,0.57
2022-08-31T11:45:07.663Z,0.60
2022-08-31T11:48:17.329Z,0.77
2022-08-31T11:51:24.024Z,0.70
2022-08-31T11:54:42.291Z,0.83
2022-08-31T11:57:48.203Z,0.70
2022-08-31T12:00:58.916Z,0.70
2022-08-31T12:04:07.900Z,0.70
2022-08-31T12:07:14.518Z,0.77
2022-08-31T12:10:24.099Z,0.60
2022-08-31T12:13:34.269Z,0.77
2022-08-31T12:16:40.098Z,0.60
2022-08-31T12:20:12.099Z,0.60
2022-08-31T12:23:37.005Z,0.50
2022-08-31T12:26:45.467Z,0.93
2022-08-31T12:29:51.967Z,0.60
2022-08-31T12:32:57.972Z,0.70
2022-08-31T12:36:04.487Z,0.77
2022-08-31T12:39:11.943Z,0.87
2022-08-31T12:42:19.571Z,0.70
2022-08-31T12:45:25.070Z,0.67
2022-08-31T12:48:31.643Z,0.60
2022-08-31T12:51:38.161Z,0.70
2022-08-31T12:54:45.650Z,0.67
2022-08-31T12:57:52.237Z,0.80
2022-08-31T13:00:58.862Z,0.60
2022-08-31T13:04:06.831Z,0.70
2022-08-31T13:07:13.611Z,0.60
2022-08-31T13:10:20.724Z,0.70
2022-08-31T13:13:31.208Z,0.63
2022-08-31T13:16:37.617Z,0.70
2022-08-31T13:19:51.348Z,0.80
2022-08-31T13:22:57.853Z,0.60
2022-08-31T13:26:05.985Z,0.60
2022-08-31T13:29:15.979Z,0.60
2022-08-31T13:32:22.140Z,0.70
2022-08-31T13:35:28.636Z,0.90
2022-08-31T13:38:44.827Z,0.70
2022-08-31T13:41:53.358Z,0.70
2022-08-31T13:45:02.655Z,0.60
2022-08-31T13:48:11.136Z,0.70
2022-08-31T13:51:17.235Z,0.60
2022-08-31T13:54:24.117Z,0.67
2022-08-31T14:00:58.977Z,0.50
2022-08-31T14:04:07.662Z,0.50
2022-08-31T14:07:24.058Z,0.60
2022-08-31T14:10:32.225Z,1.00
2022-08-31T14:13:52.899Z,0.70
2022-08-31T14:17:03.779Z,1.10
2022-08-31T14:20:10.488Z,0.67
2022-08-31T14:23:17.809Z,0.60
2022-08-31T14:26:29.630Z,0.50
2022-08-31T14:29:37.350Z,0.73
2022-08-31T14:32:46.375Z,0.80
2022-08-31T14:35:55.971Z,0.77
2022-08-31T14:39:07.567Z,0.60
2022-08-31T14:42:14.779Z,0.87
2022-08-31T14:45:21.862Z,0.60
2022-08-31T14:48:29.654Z,0.60
2022-08-31T14:51:39.322Z,0.70
2022-08-31T14:54:46.114Z,0.60
2022-08-31T14:57:58.849Z,0.70
2022-08-31T15:01:09.042Z,0.87
2022-08-31T15:04:15.151Z,0.60
2022-08-31T15:07:22.787Z,0.50
2022-08-31T15:10:32.697Z,0.60
2022-08-31T15:13:39.844Z,0.60
2022-08-31T15:16:54.275Z,0.97
2022-08-31T15:20:14.593Z,0.60
2022-08-31T15:23:37.258Z,0.60
2022-08-31T15:26:46.083Z,0.60
2022-08-31T15:30:05.021Z,1.20
2022-08-31T15:33:12.843Z,0.60
2022-08-31T15:36:25.134Z,0.70
2022-08-31T15:39:32.318Z,0.80
2022-08-31T15:42:47.464Z,0.70
2022-08-31T15:45:53.343Z,0.80
2022-08-31T15:49:11.868Z,0.60
2022-08-31T15:52:19.367Z,0.60
2022-08-31T15:55:34.583Z,0.70
2022-08-31T15:58:41.579Z,0.80
2022-08-31T16:01:54.279Z,0.90
2022-08-31T16:08:28.648Z,0.60
2022-08-31T16:11:43.460Z,1.10
2022-08-31T16:14:52.014Z,0.60
2022-08-31T16:18:05.941Z,0.60
2022-08-31T16:21:27.549Z,0.53
2022-08-31T16:24:37.590Z,0.50
2022-08-31T16:27:45.939Z,1.17
2022-08-31T16:34:11.690Z,2.10
2022-08-31T16:37:19.259Z,1.57
2022-08-31T16:40:29.102Z,0.63
2022-08-31T16:43:35.275Z,0.90
2022-08-31T16:46:44.856Z,0.60
2022-08-31T16:49:53.181Z,1.17
2022-08-31T16:53:01.944Z,0.80
2022-08-31T16:56:09.350Z,0.80
2022-08-31T16:59:18.202Z,0.60
2022-08-31T17:02:25.170Z,0.60
2022-08-31T17:05:32.402Z,0.63
2022-08-31T17:08:41.576Z,0.60
2022-08-31T17:11:48.790Z,0.83
2022-08-31T17:14:55.606Z,0.60
2022-08-31T17:18:02.130Z,0.60
2022-08-31T17:21:22.771Z,0.50
2022-08-31T17:24:31.369Z,0.63
2022-08-31T17:27:40.885Z,0.70
2022-08-31T17:31:04.180Z,0.63
2022-08-31T17:34:10.426Z,0.70
2022-08-31T17:37:23.210Z,0.70
2022-08-31T17:40:30.332Z,0.60
2022-08-31T17:43:39.396Z,0.67
2022-08-31T17:46:47.636Z,0.70
2022-08-31T17:49:55.613Z,0.80
2022-08-31T17:53:02.720Z,0.60
2022-08-31T17:56:10.945Z,0.63
2022-08-31T17:59:17.518Z,0.73
2022-08-31T18:02:26.166Z,0.97
2022-08-31T18:05:37.329Z,0.80
2022-08-31T18:08:45.360Z,0.90
2022-08-31T18:11:51.734Z,1.10
2022-08-31T18:15:07.419Z,0.90
2022-08-31T18:18:13.424Z,0.70
2022-08-31T18:21:23.572Z,0.70
2022-08-31T18:24:29.239Z,0.90
2022-08-31T18:27:40.916Z,0.77
2022-08-31T18:31:11.447Z,0.90
2022-08-31T18:34:18.523Z,1.10
2022-08-31T18:37:27.914Z,0.73
2022-08-31T18:40:53.091Z,0.80
2022-08-31T18:44:16.919Z,0.80
2022-08-31T18:47:28.959Z,0.77
2022-08-31T18:50:37.181Z,0.80
2022-08-31T18:53:50.839Z,0.80
2022-08-31T18:56:58.353Z,0.80
2022-08-31T19:00:05.436Z,0.90
2022-08-31T19:03:11.274Z,0.70
2022-08-31T19:06:17.694Z,1.10
2022-08-31T19:09:24.256Z,0.87
2022-08-31T19:12:30.692Z,1.13
2022-08-31T19:15:37.902Z,0.80
2022-08-31T19:18:49.763Z,1.33
2022-08-31T19:22:03.608Z,0.93
2022-08-31T19:25:12.763Z,0.90
2022-08-31T19:28:28.775Z,0.90
2022-08-31T19:31:36.039Z,0.90
2022-08-31T19:34:46.527Z,1.30
2022-08-31T19:38:02.427Z,1.00
2022-08-31T19:41:09.270Z,0.90
2022-08-31T19:44:23.415Z,0.80
2022-08-31T19:47:29.879Z,0.90
2022-08-31T19:50:41.548Z,1.40
2022-08-31T19:53:50.709Z,1.00
2022-08-31T19:56:56.588Z,1.00
2022-08-31T20:00:12.838Z,0.80
2022-08-31T20:03:20.554Z,1.10
2022-08-31T20:06:29.331Z,1.17
2022-08-31T20:09:35.156Z,1.03
2022-08-31T20:12:59.589Z,1.50
2022-08-31T20:16:15.179Z,1.10
2022-08-31T20:19:26.657Z,1.07
2022-08-31T20:22:35.764Z,1.10
2022-08-31T20:25:41.642Z,1.43
2022-08-31T20:28:47.938Z,1.30
2022-08-31T20:31:55.575Z,1.10
2022-08-31T20:35:03.273Z,1.30
2022-08-31T20:38:10.173Z,1.40
2022-08-31T20:41:16.194Z,1.30
2022-08-31T20:44:21.583Z,1.10
2022-08-31T20:47:44.876Z,1.40
2022-08-31T20:50:53.141Z,1.50
2022-08-31T20:53:59.809Z,1.40
2022-08-31T20:57:06.159Z,1.10
2022-08-31T21:00:19.904Z,1.83
2022-08-31T21:03:26.553Z,1.50
2022-08-31T21:06:34.371Z,1.47
2022-08-31T21:09:42.739Z,1.20
2022-08-31T21:12:49.980Z,1.40
2022-08-31T21:15:58.852Z,1.40
2022-08-31T21:19:11.951Z,1.27
2022-08-31T21:22:19.551Z,1.80
2022-08-31T21:25:26.180Z,1.33
2022-08-31T21:28:38.615Z,1.30
2022-08-31T21:31:51.930Z,1.23
2022-08-31T21:35:01.752Z,1.53
2022-08-31T21:38:10.161Z,0.90
2022-08-31T21:41:16.332Z,3.40
2022-08-31T21:44:22.353Z,2.70
2022-08-31T21:47:29.393Z,1.87
2022-08-31T21:50:39.787Z,1.50
2022-08-31T21:53:47.977Z,1.33
2022-08-31T21:56:56.086Z,1.30
2022-08-31T22:00:03.553Z,1.87
2022-08-31T22:03:09.375Z,1.50
2022-08-31T22:06:16.041Z,1.30
2022-08-31T22:09:25.654Z,2.10
2022-08-31T22:12:35.447Z,1.60
2022-08-31T22:15:46.731Z,1.50
2022-08-31T22:19:01.613Z,1.50
2022-08-31T22:22:47.658Z,1.63
2022-08-31T22:25:54.602Z,1.40
2022-08-31T22:29:01.358Z,1.30
2022-08-31T22:32:12.211Z,1.37
2022-08-31T22:35:18.315Z,1.40
2022-08-31T22:38:34.949Z,1.47
2022-08-31T22:41:42.005Z,1.50
2022-08-31T22:44:47.635Z,1.30
2022-08-31T22:47:53.467Z,1.50
2022-08-31T22:50:59.753Z,1.50
2022-08-31T22:54:05.847Z,1.30
2022-08-31T22:57:15.202Z,1.50
2022-08-31T23:00:26.791Z,1.73
2022-08-31T23:03:38.967Z,1.60
2022-08-31T23:06:47.274Z,1.40
2022-08-31T23:09:55.130Z,1.50
2022-08-31T23:13:03.178Z,1.30
2022-08-31T23:16:09.541Z,1.50
2022-08-31T23:19:15.057Z,1.60
2022-08-31T23:22:38.675Z,1.40
2022-08-31T23:25:44.440Z,1.50
2022-08-31T23:28:50.491Z,1.40
2022-08-31T23:31:57.530Z,2.10
2022-08-31T23:35:03.457Z,1.70
2022-08-31T23:38:09.613Z,1.60
2022-08-31T23:41:15.736Z,1.67
2022-08-31T23:44:26.208Z,2.10
2022-08-31T23:47:33.021Z,1.90
2022-08-31T23:50:41.098Z,1.50
2022-08-31T23:53:47.417Z,1.83
2022-08-31T23:56:58.113Z,1.40
